Terminal Aerodrome Forecast
Issued by NWS

Home | Current Version | Previous Version | Text Only | Print | Product List | Glossary On
Versions: 1 2 3 4 5 6 7 8 9 10 11 12 13
000
FTUS44 KCRP 240523
TAFALI
TAF
KALI 240523Z 2406/2506 15004KT P6SM FEW018
     FM241600 16013KT P6SM SCT035
     FM242100 13014G19KT P6SM SCT050
     FM250200 14009KT P6SM SKC=

USA.gov is the U.S. government's official web portal to all federal, state and local government web resources and services.